Terminal Aerodrome Forecast
Issued by NWS Wilmington, NC

Home | Current Version | Previous Version | Text Only | Print | Product List | Glossary On
Versions: 1 2 3 4 5 6 7 8 9 10 11 12
917
FTUS42 KILM 211127
TAFMYR
TAF
KMYR 211127Z 2112/2212 03004KT P6SM SCT250
     FM211800 10009KT P6SM SCT250
     FM212300 09003KT P6SM BKN250
     FM220900 VRB03KT 3SM BR BKN250=

USA.gov is the U.S. government's official web portal to all federal, state and local government web resources and services.